Time;durP1;ratioP1;P1;durP2;ratioP2;P2;SDS_P1;SDS_P2;PMS_P1;PMS_P2;Temp;Humidity;BMP_temperature;BMP_pressure;BME280_temperature;BME280_humidity;BME280_pressure;Samples;Min_cycle;Max_cycle;Signal;HPM_P1;HPM_P2
2023/12/02 00:02:00;;;;;;;6.85;4.93;;;;;;;;;;5100637;28;20043;-72
2023/12/02 00:04:26;;;;;;;5.78;3.42;;;;;;;;;;5100627;28;20059;-71
2023/12/02 00:06:53;;;;;;;8.05;4.40;;;4.10;99.90;;;;;;5100575;28;20183;-72
2023/12/02 00:09:19;;;;;;;7.10;3.70;;;;;;;;;;5100553;28;20020;-71
2023/12/02 00:11:49;;;;;;;7.88;4.10;;;4.10;99.90;;;;;;5100638;28;20078;-72
2023/12/02 00:14:16;;;;;;;10.23;4.43;;;;;;;;;;5100505;28;20112;-72
2023/12/02 00:16:42;;;;;;;9.00;5.00;;;;;;;;;;5100309;28;20024;-71
2023/12/02 00:19:07;;;;;;;8.30;5.05;;;4.10;99.90;;;;;;5100414;28;20028;-72
2023/12/02 00:21:33;;;;;;;7.15;4.47;;;4.30;99.90;;;;;;5100111;28;20043;-72
2023/12/02 00:23:59;;;;;;;13.07;4.00;;;4.40;99.90;;;;;;5100378;28;20326;-72
2023/12/02 00:26:25;;;;;;;6.97;4.00;;;;;;;;;;5100067;28;20024;-72
2023/12/02 00:28:50;;;;;;;10.80;4.93;;;4.20;99.90;;;;;;5100624;28;20026;-72
2023/12/02 00:31:16;;;;;;;10.18;5.00;;;;;;;;;;5100322;28;20127;-71
2023/12/02 00:33:42;;;;;;;7.05;4.28;;;;;;;;;;5100325;28;20028;-71
2023/12/02 00:36:09;;;;;;;9.10;5.20;;;4.20;99.90;;;;;;5100351;28;20024;-71
2023/12/02 00:38:34;;;;;;;7.50;4.30;;;4.10;99.90;;;;;;5100440;28;20016;-72
2023/12/02 00:41:00;;;;;;;8.27;4.28;;;4.40;99.90;;;;;;5100105;28;20023;-72
2023/12/02 00:43:26;;;;;;;10.55;4.80;;;4.10;99.90;;;;;;5100456;28;20039;-72
2023/12/02 00:45:52;;;;;;;9.90;4.88;;;;;;;;;;5100241;28;20528;-72
2023/12/02 00:48:18;;;;;;;10.05;4.95;;;;;;;;;;5101511;28;20372;-72
2023/12/02 00:50:43;;;;;;;7.57;4.15;;;4.20;99.90;;;;;;5104144;28;20079;-72
2023/12/02 00:53:09;;;;;;;8.98;4.70;;;4.20;99.90;;;;;;5104160;28;20032;-72
2023/12/02 00:55:35;;;;;;;8.55;4.97;;;4.30;99.90;;;;;;5103753;28;20019;-73
2023/12/02 00:58:00;;;;;;;8.10;4.47;;;4.20;99.90;;;;;;5104011;28;20246;-73
2023/12/02 01:00:26;;;;;;;12.95;5.93;;;4.20;99.90;;;;;;5103853;28;20028;-70
2023/12/02 01:02:52;;;;;;;11.43;4.80;;;;;;;;;;5103933;28;20070;-71
2023/12/02 01:05:18;;;;;;;8.45;4.55;;;4.00;99.90;;;;;;5101591;28;20033;-71
2023/12/02 01:07:44;;;;;;;11.75;5.35;;;;;;;;;;5100622;28;20090;-71
2023/12/02 01:10:13;;;;;;;14.40;4.93;;;;;;;;;;5106371;28;20031;-72
2023/12/02 01:12:39;;;;;;;11.20;5.95;;;4.10;99.90;;;;;;5098571;28;20043;-70
2023/12/02 01:15:06;;;;;;;12.95;5.85;;;;;;;;;;5102987;28;20023;-70
2023/12/02 01:17:31;;;;;;;11.07;4.47;;;3.90;99.90;;;;;;5103241;28;20035;-70
2023/12/02 01:19:57;;;;;;;13.27;5.55;;;;;;;;;;5102920;28;20043;-72
2023/12/02 01:22:23;;;;;;;9.13;4.75;;;;;;;;;;5102390;28;20120;-70
2023/12/02 01:24:49;;;;;;;12.93;5.20;;;4.00;99.90;;;;;;5102568;28;20220;-71
2023/12/02 01:27:15;;;;;;;9.80;5.97;;;;;;;;;;5102607;28;20036;-71
2023/12/02 01:29:41;;;;;;;12.98;6.30;;;4.20;99.90;;;;;;5102715;28;20016;-71
2023/12/02 01:32:07;;;;;;;9.73;5.60;;;;;;;;;;5101152;28;20047;-71
2023/12/02 01:34:33;;;;;;;12.43;5.75;;;;;;;;;;5102096;28;20031;-71
2023/12/02 01:36:58;;;;;;;10.65;5.78;;;4.30;99.90;;;;;;5102212;28;20097;-71
2023/12/02 01:39:26;;;;;;;13.05;5.47;;;4.30;99.90;;;;;;5097840;28;20304;-70
2023/12/02 01:41:52;;;;;;;14.52;5.57;;;;;;;;;;5102977;28;20016;-72
2023/12/02 01:44:18;;;;;;;10.65;5.47;;;;;;;;;;5100955;28;20269;-70
2023/12/02 01:46:44;;;;;;;11.93;6.13;;;;;;;;;;5102327;28;20039;-70
2023/12/02 01:49:10;;;;;;;10.88;6.00;;;4.40;99.90;;;;;;5102228;28;20043;-70
2023/12/02 01:51:37;;;;;;;16.00;5.00;;;;;;;;;;5102189;28;20028;-70
2023/12/02 01:54:03;;;;;;;10.80;4.55;;;4.50;99.90;;;;;;5102367;28;20031;-71
2023/12/02 01:56:29;;;;;;;13.43;6.32;;;;;;;;;;5102169;28;20032;-70
2023/12/02 01:58:55;;;;;;;10.20;5.38;;;;;;;;;;5102081;28;20040;-70
2023/12/02 02:01:21;;;;;;;12.07;5.93;;;4.00;99.90;;;;;;5101995;28;20365;-70
2023/12/02 02:03:50;;;;;;;10.05;5.68;;;4.40;99.90;;;;;;5101662;28;20032;-71
2023/12/02 02:06:17;;;;;;;13.15;5.28;;;;;;;;;;5102549;28;20289;-70
2023/12/02 02:08:43;;;;;;;11.98;5.75;;;4.40;99.90;;;;;;5102555;28;20052;-71
2023/12/02 02:11:08;;;;;;;10.63;5.00;;;4.30;99.90;;;;;;5102554;28;20054;-70
2023/12/02 02:13:34;;;;;;;10.32;5.47;;;4.20;99.90;;;;;;5102388;28;20055;-70
2023/12/02 02:16:00;;;;;;;10.68;5.10;;;;;;;;;;5100891;28;20043;-69
2023/12/02 02:18:28;;;;;;;11.18;5.63;;;4.20;99.90;;;;;;5102175;28;20016;-70
2023/12/02 02:20:54;;;;;;;9.88;5.05;;;;;;;;;;5101946;28;20265;-69
2023/12/02 02:23:23;;;;;;;7.75;4.60;;;4.40;99.90;;;;;;5102283;28;20024;-68
2023/12/02 02:25:51;;;;;;;14.68;5.95;;;4.40;99.90;;;;;;5102224;28;20024;-69
2023/12/02 02:28:24;;;;;;;11.45;5.03;;;4.30;99.90;;;;;;5101937;28;20342;-68
2023/12/02 02:30:51;;;;;;;13.35;5.40;;;;;;;;;;5102020;28;20023;-68
2023/12/02 02:33:17;;;;;;;11.27;5.70;;;4.30;99.90;;;;;;5102010;28;20024;-68
2023/12/02 02:35:43;;;;;;;8.38;4.75;;;4.50;99.90;;;;;;5102127;28;20024;-68
2023/12/02 02:38:10;;;;;;;10.30;5.00;;;5.00;99.90;;;;;;5101800;28;20303;-68
2023/12/02 02:40:35;;;;;;;10.60;4.75;;;;;;;;;;5101942;28;20091;-68
2023/12/02 02:43:01;;;;;;;10.13;5.20;;;4.70;99.90;;;;;;5100539;28;20019;-69
2023/12/02 02:45:27;;;;;;;11.77;5.60;;;;;;;;;;5101741;28;20035;-69
2023/12/02 02:47:53;;;;;;;11.15;5.22;;;4.20;99.90;;;;;;5101474;28;20215;-68
2023/12/02 02:50:19;;;;;;;9.35;5.38;;;;;;;;;;5101702;28;20032;-69
2023/12/02 02:52:46;;;;;;;12.77;5.85;;;4.40;99.90;;;;;;5101634;28;20044;-69
2023/12/02 02:55:12;;;;;;;9.10;4.60;;;;;;;;;;5101870;28;20024;-68
2023/12/02 02:57:38;;;;;;;9.20;5.15;;;4.40;99.90;;;;;;5101608;28;20334;-69
2023/12/02 03:00:09;;;;;;;7.90;4.60;;;4.40;99.90;;;;;;5101581;28;20016;-69
2023/12/02 03:02:35;;;;;;;9.63;5.05;;;;;;;;;;5101609;28;20032;-69
2023/12/02 03:05:01;;;;;;;11.48;5.57;;;;;;;;;;5101298;28;20027;-69
2023/12/02 03:07:27;;;;;;;11.32;5.82;;;;;;;;;;5101494;28;20081;-70
2023/12/02 03:09:52;;;;;;;9.65;5.13;;;4.50;99.90;;;;;;5101473;28;20032;-70
2023/12/02 03:12:18;;;;;;;10.75;4.75;;;4.50;99.90;;;;;;5099479;28;20088;-69
2023/12/02 03:14:43;;;;;;;9.85;5.07;;;4.50;99.90;;;;;;5101383;28;20304;-69
2023/12/02 03:17:09;;;;;;;13.43;4.90;;;4.60;99.90;;;;;;5101647;28;20099;-69
2023/12/02 03:19:35;;;;;;;9.60;4.72;;;;;;;;;;5101268;28;20361;-69
2023/12/02 03:22:02;;;;;;;7.60;4.15;;;4.50;99.90;;;;;;5101030;28;20078;-69
2023/12/02 03:24:28;;;;;;;10.32;4.60;;;5.00;99.90;;;;;;5101252;28;20020;-69
2023/12/02 03:26:54;;;;;;;8.88;4.57;;;;;;;;;;5082413;28;20070;-70
2023/12/02 03:29:20;;;;;;;9.25;5.47;;;;;;;;;;5081234;28;20711;-69
2023/12/02 03:31:46;;;;;;;8.50;4.60;;;;;;;;;;5080822;28;20060;-69
2023/12/02 03:34:12;;;;;;;8.90;4.75;;;;;;;;;;5081133;28;20024;-70
2023/12/02 03:36:38;;;;;;;9.70;4.22;;;4.60;99.90;;;;;;5080872;28;20016;-69
2023/12/02 03:39:03;;;;;;;13.75;4.60;;;4.80;99.90;;;;;;5080854;28;20199;-71
2023/12/02 03:41:29;;;;;;;9.45;4.68;;;4.70;99.90;;;;;;5080874;28;20312;-69
2023/12/02 03:43:55;;;;;;;8.32;4.93;;;4.60;99.90;;;;;;5080658;28;20316;-70
2023/12/02 03:46:21;;;;;;;10.13;5.13;;;;;;;;;;5080562;28;20086;-69
2023/12/02 03:48:47;;;;;;;16.98;4.38;;;;;;;;;;5080482;28;20048;-71
2023/12/02 03:51:13;;;;;;;7.45;4.40;;;;;;;;;;5086807;28;20046;-70
2023/12/02 03:53:39;;;;;;;11.13;6.00;;;4.90;99.90;;;;;;5100590;28;20026;-70
2023/12/02 03:56:06;;;;;;;12.55;5.32;;;4.80;99.90;;;;;;5100438;28;20042;-70
2023/12/02 03:58:32;;;;;;;11.60;5.43;;;;;;;;;;5100346;28;20519;-70
2023/12/02 04:00:58;;;;;;;16.33;6.65;;;;;;;;;;5094297;28;20359;-70
2023/12/02 04:03:24;;;;;;;14.15;7.30;;;;;;;;;;5080171;28;20311;-70
2023/12/02 04:05:50;;;;;;;13.85;6.00;;;4.90;99.90;;;;;;5080180;28;20062;-70
2023/12/02 04:08:16;;;;;;;14.25;6.90;;;4.70;99.90;;;;;;5080244;28;20088;-70
2023/12/02 04:10:42;;;;;;;15.88;6.40;;;4.70;99.90;;;;;;5080142;28;20052;-71
2023/12/02 04:13:08;;;;;;;19.00;7.07;;;;;;;;;;5080393;28;20499;-69
2023/12/02 04:15:35;;;;;;;14.30;6.22;;;;;;;;;;5080041;28;20088;-69
2023/12/02 04:18:00;;;;;;;12.23;5.90;;;4.80;99.90;;;;;;5080182;28;20048;-69
2023/12/02 04:20:26;;;;;;;13.77;6.13;;;;;;;;;;5079744;28;20036;-69
2023/12/02 04:22:53;;;;;;;15.57;6.40;;;;;;;;;;5079802;28;20043;-69
2023/12/02 04:25:19;;;;;;;12.32;5.45;;;4.70;99.90;;;;;;5079873;28;20062;-69
2023/12/02 04:27:46;;;;;;;11.40;5.35;;;;;;;;;;5079914;28;20095;-69
2023/12/02 04:30:12;;;;;;;11.40;5.18;;;;;;;;;;5079422;28;20312;-69
2023/12/02 04:32:38;;;;;;;12.05;5.63;;;4.70;99.90;;;;;;5099939;28;20266;-68
2023/12/02 04:35:05;;;;;;;13.32;6.00;;;4.60;99.90;;;;;;5100178;28;20073;-71
2023/12/02 04:37:32;;;;;;;12.70;4.95;;;4.90;99.90;;;;;;5100423;28;20019;-71
2023/12/02 04:39:57;;;;;;;13.52;5.60;;;4.70;99.90;;;;;;5100089;28;20024;-71
2023/12/02 04:42:24;;;;;;;15.60;6.32;;;;;;;;;;5100231;28;20492;-70
2023/12/02 04:44:49;;;;;;;10.65;5.35;;;4.70;99.90;;;;;;5100360;28;20049;-71
2023/12/02 04:47:15;;;;;;;12.10;5.68;;;4.80;99.90;;;;;;5098878;28;20303;-69
2023/12/02 04:49:41;;;;;;;14.23;6.45;;;5.30;99.90;;;;;;5100242;28;20024;-69
2023/12/02 04:52:07;;;;;;;15.27;6.43;;;;;;;;;;5099998;28;20050;-70
2023/12/02 04:54:35;;;;;;;16.98;6.57;;;5.00;99.90;;;;;;5100204;28;20020;-69
2023/12/02 04:57:01;;;;;;;11.02;5.57;;;4.90;99.90;;;;;;5099835;28;20300;-69
2023/12/02 04:59:27;;;;;;;10.48;5.40;;;;;;;;;;5100004;28;20052;-68
2023/12/02 05:01:53;;;;;;;12.02;5.40;;;4.90;99.90;;;;;;5099990;28;20299;-70
2023/12/02 05:04:19;;;;;;;7.55;4.65;;;4.70;99.90;;;;;;5099812;28;20085;-69
2023/12/02 05:06:45;;;;;;;16.70;7.43;;;5.10;99.90;;;;;;5099860;28;20088;-69
2023/12/02 05:09:11;;;;;;;17.02;7.03;;;5.00;99.90;;;;;;5099795;28;20016;-71
2023/12/02 05:11:37;;;;;;;15.20;6.53;;;;;;;;;;5099542;28;20061;-70
2023/12/02 05:14:03;;;;;;;49.15;10.60;;;;;;;;;;5099815;28;20034;-69
2023/12/02 05:16:29;;;;;;;125.45;12.60;;;;;;;;;;5099838;28;20053;-69
2023/12/02 05:18:55;;;;;;;116.60;10.38;;;;;;;;;;5099629;28;20180;-69
2023/12/02 05:21:20;;;;;;;31.75;10.10;;;4.60;99.90;;;;;;5099466;28;20067;-69
2023/12/02 05:23:46;;;;;;;24.98;10.18;;;4.80;99.90;;;;;;5099762;28;20416;-69
2023/12/02 05:26:12;;;;;;;21.33;8.35;;;;;;;;;;5099733;28;20028;-70
2023/12/02 05:28:38;;;;;;;28.63;9.90;;;4.60;99.90;;;;;;5099699;28;20024;-70
2023/12/02 05:31:05;;;;;;;276.27;12.95;;;4.60;99.90;;;;;;5098091;28;20036;-70
2023/12/02 05:33:31;;;;;;;307.92;12.25;;;4.70;99.90;;;;;;5099631;28;20031;-70
2023/12/02 05:35:57;;;;;;;201.35;11.02;;;;;;;;;;5101843;28;20024;-70
2023/12/02 05:38:23;;;;;;;107.88;11.18;;;;;;;;;;5103130;28;20039;-70
2023/12/02 05:40:49;;;;;;;107.32;10.93;;;;;;;;;;5103328;28;20028;-70
2023/12/02 05:43:15;;;;;;;45.13;10.93;;;;;;;;;;5103175;28;20092;-70
2023/12/02 05:45:41;;;;;;;210.00;12.85;;;4.40;99.90;;;;;;5103041;28;20049;-70
2023/12/02 05:48:07;;;;;;;220.43;12.18;;;;;;;;;;5102972;28;20035;-70
2023/12/02 05:50:33;;;;;;;147.95;11.48;;;4.80;99.90;;;;;;5102872;28;20019;-70
2023/12/02 05:52:59;;;;;;;310.48;13.30;;;;;;;;;;5103068;28;20089;-70
2023/12/02 05:55:26;;;;;;;216.77;11.68;;;4.30;99.90;;;;;;5103053;28;20027;-70
2023/12/02 05:57:52;;;;;;;123.32;10.38;;;;;;;;;;5101418;28;20228;-70
2023/12/02 06:00:19;;;;;;;179.00;11.25;;;4.00;99.90;;;;;;5102802;28;20236;-70
2023/12/02 06:02:44;;;;;;;206.10;13.50;;;4.00;99.90;;;;;;5102263;28;20095;-69
2023/12/02 06:05:10;;;;;;;247.63;11.77;;;4.20;99.90;;;;;;5101951;28;20362;-70
2023/12/02 06:07:37;;;;;;;316.27;13.02;;;4.10;99.90;;;;;;5101887;28;20028;-69
2023/12/02 06:10:03;;;;;;;278.48;13.23;;;4.20;99.90;;;;;;5101746;28;20028;-70
2023/12/02 06:12:29;;;;;;;315.45;13.82;;;4.10;99.90;;;;;;5101569;28;20289;-69
2023/12/02 06:14:55;;;;;;;196.77;13.40;;;;;;;;;;5101436;28;20580;-70
2023/12/02 06:17:21;;;;;;;273.48;12.25;;;;;;;;;;5101698;28;20035;-70
2023/12/02 06:19:47;;;;;;;217.15;12.60;;;;;;;;;;5101598;28;20311;-68
2023/12/02 06:22:14;;;;;;;285.02;13.88;;;;;;;;;;5083938;28;20108;-68
2023/12/02 06:24:40;;;;;;;327.60;14.07;;;;;;;;;;5081921;28;20033;-68
2023/12/02 06:27:06;;;;;;;177.23;12.82;;;;;;;;;;5081895;28;20205;-68
2023/12/02 06:29:32;;;;;;;315.98;13.38;;;;;;;;;;5081927;28;20515;-69
2023/12/02 06:31:58;;;;;;;159.05;11.50;;;;;;;;;;5081605;28;20078;-69
2023/12/02 06:34:24;;;;;;;114.93;10.40;;;4.10;99.90;;;;;;5081760;28;20020;-70
2023/12/02 06:36:50;;;;;;;178.85;12.38;;;;;;;;;;5081617;28;20039;-70
2023/12/02 06:39:16;;;;;;;125.57;11.23;;;;;;;;;;5081642;28;20051;-70
2023/12/02 06:41:42;;;;;;;225.07;13.98;;;3.80;99.90;;;;;;5081646;28;20036;-70
2023/12/02 06:44:08;;;;;;;138.55;12.65;;;4.20;99.90;;;;;;5081485;28;20308;-72
2023/12/02 06:46:34;;;;;;;283.27;13.75;;;;;;;;;;5081377;28;20092;-70
2023/12/02 06:49:00;;;;;;;197.15;13.65;;;;;;;;;;5081507;28;20327;-70
2023/12/02 06:51:29;;;;;;;138.60;12.93;;;;;;;;;;5081354;28;20036;-71
2023/12/02 06:53:57;;;;;;;185.00;13.18;;;4.20;99.90;;;;;;5081559;28;20024;-71
2023/12/02 06:56:24;;;;;;;250.32;14.15;;;4.60;99.90;;;;;;5081607;28;20083;-71
2023/12/02 06:58:50;;;;;;;217.80;14.15;;;3.60;99.90;;;;;;5081502;28;20024;-70
2023/12/02 07:01:23;;;;;;;212.95;12.95;;;4.20;99.90;;;;;;5081577;28;20020;-70
2023/12/02 07:03:48;;;;;;;219.32;13.98;;;4.30;99.90;;;;;;5081332;28;20335;-70
2023/12/02 07:06:15;;;;;;;188.02;13.63;;;;;;;;;;5080083;28;20025;-69
2023/12/02 07:08:41;;;;;;;120.68;11.93;;;4.20;99.90;;;;;;5081514;28;20058;-69
2023/12/02 07:11:07;;;;;;;128.18;11.27;;;4.20;99.90;;;;;;5081280;28;20033;-70
2023/12/02 07:13:32;;;;;;;186.07;12.60;;;4.10;99.90;;;;;;5081151;28;20020;-68
2023/12/02 07:15:58;;;;;;;143.13;11.68;;;4.00;99.90;;;;;;5079748;28;20048;-70
2023/12/02 07:18:23;;;;;;;92.82;11.98;;;4.20;99.90;;;;;;5081010;28;20084;-70
2023/12/02 07:20:49;;;;;;;117.05;11.18;;;4.20;99.90;;;;;;5080830;28;20052;-71
2023/12/02 07:23:15;;;;;;;156.73;12.32;;;4.20;99.90;;;;;;5080971;28;20039;-74
2023/12/02 07:25:40;;;;;;;145.77;12.82;;;4.20;99.90;;;;;;5081674;28;20082;-70
2023/12/02 07:28:06;;;;;;;150.30;10.70;;;4.40;99.90;;;;;;5080662;28;20119;-71
2023/12/02 07:30:33;;;;;;;84.65;11.20;;;;;;;;;;5080875;28;20029;-70
2023/12/02 07:32:58;;;;;;;91.90;10.73;;;4.20;99.90;;;;;;5080710;28;20064;-71
2023/12/02 07:35:24;;;;;;;58.53;10.85;;;4.50;99.90;;;;;;5080894;28;20029;-70
2023/12/02 07:37:49;;;;;;;15.50;6.65;;;4.50;99.90;;;;;;5080827;28;20028;-70
2023/12/02 07:40:15;;;;;;;39.42;9.77;;;4.40;99.90;;;;;;5081081;28;20023;-71
2023/12/02 07:42:41;;;;;;;16.48;6.97;;;4.70;99.90;;;;;;5080882;28;20032;-71
2023/12/02 07:45:07;;;;;;;15.68;7.10;;;4.60;99.90;;;;;;5080710;28;20040;-70
2023/12/02 07:47:33;;;;;;;16.10;7.75;;;;;;;;;;5080710;28;20250;-70
2023/12/02 07:49:58;;;;;;;18.00;7.70;;;4.80;99.90;;;;;;5080409;28;20315;-69
2023/12/02 07:52:24;;;;;;;16.40;6.82;;;4.90;99.90;;;;;;5080443;28;20042;-69
2023/12/02 07:54:50;;;;;;;19.85;8.57;;;;;;;;;;5080631;28;20027;-71
2023/12/02 07:57:16;;;;;;;21.73;8.38;;;;;;;;;;5080494;28;20013;-74
2023/12/02 07:59:42;;;;;;;73.13;9.57;;;;;;;;;;5080416;28;20033;-72
2023/12/02 08:02:08;;;;;;;193.10;10.88;;;;;;;;;;5079135;28;20355;-70
2023/12/02 08:04:33;;;;;;;147.65;10.52;;;5.20;99.90;;;;;;5080813;28;20032;-72
2023/12/02 08:06:59;;;;;;;263.73;15.20;;;4.90;99.90;;;;;;5079465;28;20012;-73
2023/12/02 08:09:26;;;;;;;241.60;17.42;;;5.00;99.90;;;;;;5080596;28;20327;-74
2023/12/02 08:11:51;;;;;;;230.25;19.10;;;5.00;99.90;;;;;;5080297;28;20036;-72
2023/12/02 08:14:19;;;;;;;131.32;16.10;;;;;;;;;;5082825;28;20076;-70
2023/12/02 08:16:44;;;;;;;258.60;21.58;;;5.40;99.90;;;;;;5090843;28;20036;-71
2023/12/02 08:19:10;;;;;;;54.10;15.63;;;5.00;99.90;;;;;;5080493;28;20247;-72
2023/12/02 08:21:36;;;;;;;119.07;20.15;;;5.30;99.90;;;;;;5081006;28;20048;-72
2023/12/02 08:24:01;;;;;;;75.78;18.50;;;5.40;99.90;;;;;;5088631;28;20050;-72
2023/12/02 08:26:27;;;;;;;111.25;21.77;;;;;;;;;;5079587;28;20032;-72
2023/12/02 08:28:53;;;;;;;64.18;19.20;;;;;;;;;;5079571;28;20027;-72
2023/12/02 08:31:19;;;;;;;56.92;19.15;;;;;;;;;;5079933;28;20312;-72
2023/12/02 08:33:46;;;;;;;163.30;17.80;;;;;;;;;;5078653;28;20013;-72
2023/12/02 08:36:11;;;;;;;206.90;15.88;;;5.80;99.90;;;;;;5078652;28;20023;-72
2023/12/02 08:38:37;;;;;;;195.20;12.18;;;;;;;;;;5079809;28;20021;-71
2023/12/02 08:41:04;;;;;;;123.78;12.90;;;;;;;;;;5079901;28;20271;-71
2023/12/02 08:43:30;;;;;;;145.10;11.70;;;5.70;99.90;;;;;;5079968;28;20029;-71
2023/12/02 08:45:55;;;;;;;239.27;13.05;;;5.70;99.90;;;;;;5080239;28;20013;-72
2023/12/02 08:48:21;;;;;;;226.52;15.75;;;;;;;;;;5079758;28;20024;-71
2023/12/02 08:50:47;;;;;;;215.57;15.50;;;;;;;;;;5079909;28;20097;-71
2023/12/02 08:53:13;;;;;;;131.85;12.85;;;;;;;;;;5080246;28;20028;-71
2023/12/02 08:55:39;;;;;;;95.78;12.70;;;;;;;;;;5079662;28;20085;-71
2023/12/02 08:58:05;;;;;;;84.68;13.23;;;;;;;;;;5079705;28;20100;-71
2023/12/02 09:00:31;;;;;;;86.43;10.80;;;5.90;99.90;;;;;;5079681;28;20020;-71
2023/12/02 09:02:57;;;;;;;89.75;12.05;;;;;;;;;;5079728;28;20043;-70
2023/12/02 09:05:23;;;;;;;151.73;12.25;;;5.60;99.90;;;;;;5079812;28;20212;-70
2023/12/02 09:07:48;;;;;;;99.35;10.88;;;5.40;99.90;;;;;;5079728;28;20032;-70
2023/12/02 09:10:14;;;;;;;89.25;12.07;;;;;;;;;;5080781;28;20032;-69
2023/12/02 09:12:41;;;;;;;115.28;11.35;;;;;;;;;;5083251;28;20051;-69
2023/12/02 09:15:16;;;;;;;189.63;12.77;;;5.30;99.90;;;;;;5083533;28;20028;-71
2023/12/02 09:18:03;;;;;;;135.60;11.93;;;5.30;99.90;;;;;;5083365;28;20028;-71
2023/12/02 09:20:32;;;;;;;134.68;12.02;;;5.30;99.90;;;;;;5083104;28;20270;-70
2023/12/02 09:23:01;;;;;;;50.38;9.90;;;5.30;99.90;;;;;;5083243;28;20036;-71
2023/12/02 09:25:28;;;;;;;122.00;14.20;;;5.40;99.90;;;;;;5083214;28;20034;-71
2023/12/02 09:28:06;;;;;;;235.23;14.65;;;5.20;99.90;;;;;;5083130;28;20032;-71
2023/12/02 09:30:40;;;;;;;106.00;15.55;;;6.10;99.90;;;;;;5083138;28;20099;-69
2023/12/02 09:33:06;;;;;;;254.80;15.60;;;5.40;99.90;;;;;;5083167;28;20040;-69
2023/12/02 09:35:35;;;;;;;191.88;14.73;;;5.30;99.90;;;;;;5083266;28;20020;-69
2023/12/02 09:38:02;;;;;;;213.95;13.13;;;5.20;99.90;;;;;;5083024;28;20087;-69
2023/12/02 09:40:46;;;;;;;127.38;13.65;;;5.40;99.90;;;;;;5082999;28;20074;-70
2023/12/02 09:43:23;;;;;;;121.18;13.70;;;5.30;99.90;;;;;;5082953;28;20036;-70
2023/12/02 09:46:19;;;;;;;192.20;15.05;;;5.20;99.90;;;;;;5082924;28;20385;-72
2023/12/02 09:49:18;;;;;;;231.50;16.23;;;5.30;99.90;;;;;;5093335;28;20261;-71
2023/12/02 09:51:49;;;;;;;275.73;17.35;;;5.10;99.90;;;;;;5082469;28;20031;-71
2023/12/02 09:54:15;;;;;;;321.08;18.10;;;;;;;;;;5082821;28;20032;-70
2023/12/02 09:56:52;;;;;;;307.80;18.02;;;5.00;99.90;;;;;;5082425;28;20028;-70
2023/12/02 09:59:35;;;;;;;396.08;19.23;;;5.30;99.90;;;;;;5082715;28;20301;-70
2023/12/02 10:02:12;;;;;;;316.92;16.67;;;4.80;99.90;;;;;;5082634;28;20036;-71
2023/12/02 10:04:38;;;;;;;371.80;15.52;;;;;;;;;;5082464;28;20016;-70
2023/12/02 10:07:20;;;;;;;345.83;16.38;;;4.80;99.90;;;;;;5082567;28;20028;-70
2023/12/02 10:10:08;;;;;;;379.48;16.30;;;4.70;99.90;;;;;;5082638;28;20025;-69
2023/12/02 10:13:05;;;;;;;231.68;14.60;;;4.70;99.90;;;;;;5082460;28;20028;-70
2023/12/02 10:15:34;;;;;;;201.68;12.95;;;4.60;99.90;;;;;;5082176;28;20029;-70
2023/12/02 10:18:14;;;;;;;329.45;16.15;;;5.00;99.90;;;;;;5087568;28;20091;-70
2023/12/02 10:20:42;;;;;;;231.13;13.25;;;4.80;99.90;;;;;;5081873;28;20024;-70
2023/12/02 10:23:16;;;;;;;202.18;14.40;;;4.80;99.90;;;;;;5089916;28;20096;-70
2023/12/02 10:26:06;;;;;;;240.05;15.00;;;5.40;99.90;;;;;;5102579;28;20039;-71
2023/12/02 10:28:32;;;;;;;158.43;14.27;;;;;;;;;;5102541;28;20032;-70
2023/12/02 10:30:59;;;;;;;350.45;16.48;;;4.60;99.90;;;;;;5102440;28;20064;-71
2023/12/02 10:33:27;;;;;;;204.35;13.13;;;4.70;99.90;;;;;;5102679;28;20039;-70
2023/12/02 10:35:58;;;;;;;127.68;12.23;;;4.50;99.90;;;;;;5088668;28;20021;-72
2023/12/02 10:39:02;;;;;;;249.57;13.50;;;4.80;99.90;;;;;;5082056;28;20016;-70
2023/12/02 10:41:40;;;;;;;129.23;11.50;;;4.40;99.90;;;;;;5059865;28;20017;-70
2023/12/02 10:44:10;;;;;;;120.40;9.90;;;4.70;99.90;;;;;;5079915;28;20032;-70
2023/12/02 10:46:39;;;;;;;166.07;11.38;;;4.90;99.90;;;;;;5081731;28;20228;-70
2023/12/02 10:49:05;;;;;;;80.00;6.50;;;5.00;99.90;;;;;;5082117;28;20021;-70
2023/12/02 10:51:37;;;;;;;85.63;9.40;;;4.70;99.90;;;;;;5083118;28;20332;-71
2023/12/02 10:54:05;;;;;;;108.55;9.95;;;4.60;99.90;;;;;;5082482;28;20088;-71
2023/12/02 10:56:35;;;;;;;149.85;9.90;;;4.70;99.90;;;;;;5081815;28;20067;-71
2023/12/02 10:59:02;;;;;;;138.63;9.43;;;4.60;99.90;;;;;;5081614;28;20386;-70
2023/12/02 11:01:40;;;;;;;196.77;10.75;;;4.60;99.90;;;;;;5081574;28;20024;-71
2023/12/02 11:04:18;;;;;;;172.07;9.38;;;4.60;99.90;;;;;;5090450;28;20042;-71
2023/12/02 11:06:53;;;;;;;188.63;9.82;;;4.60;99.90;;;;;;5100596;28;20012;-70
2023/12/02 11:09:43;;;;;;;154.70;8.70;;;4.40;99.90;;;;;;5101732;28;20036;-69
2023/12/02 11:12:19;;;;;;;102.43;8.43;;;4.50;99.90;;;;;;5100232;28;20044;-70
2023/12/02 11:14:48;;;;;;;103.15;7.88;;;4.50;99.90;;;;;;5101601;28;20012;-70
2023/12/02 11:17:59;;;;;;;189.07;9.25;;;4.50;99.90;;;;;;5100183;28;20032;-70
2023/12/02 11:20:33;;;;;;;56.78;6.45;;;4.60;99.90;;;;;;5080691;28;20028;-70
2023/12/02 11:23:08;;;;;;;86.10;5.20;;;4.50;99.90;;;;;;5084250;28;20390;-70
2023/12/02 11:25:58;;;;;;;102.15;7.05;;;4.50;99.90;;;;;;5087201;28;20066;-72
2023/12/02 11:28:52;;;;;;;196.10;8.82;;;4.50;99.90;;;;;;5093243;28;20380;-70
2023/12/02 11:31:48;;;;;;;296.92;10.60;;;4.40;99.90;;;;;;5082239;28;20107;-69
2023/12/02 11:34:28;;;;;;;174.70;8.95;;;4.40;99.90;;;;;;5081233;28;20031;-68
2023/12/02 11:37:12;;;;;;;314.45;12.05;;;4.30;99.90;;;;;;5089721;28;20037;-69
2023/12/02 11:39:49;;;;;;;338.58;12.20;;;4.40;99.90;;;;;;5080902;28;20028;-68
2023/12/02 11:42:18;;;;;;;403.88;14.80;;;4.40;99.90;;;;;;5081150;28;20024;-68
2023/12/02 11:45:06;;;;;;;127.57;8.43;;;4.40;99.90;;;;;;5089735;28;20099;-69
2023/12/02 11:47:46;;;;;;;462.65;15.13;;;4.50;99.90;;;;;;5080946;28;20039;-69
2023/12/02 11:50:44;;;;;;;362.30;14.05;;;4.40;99.90;;;;;;5081711;28;20028;-70
2023/12/02 11:53:10;;;;;;;255.35;11.20;;;;;;;;;;5084118;28;20048;-69
2023/12/02 11:55:43;;;;;;;362.83;12.93;;;4.30;99.90;;;;;;5080481;28;20100;-69
2023/12/02 11:58:17;;;;;;;397.23;14.02;;;4.80;99.90;;;;;;5093228;28;20025;-69
2023/12/02 12:01:10;;;;;;;130.07;8.48;;;4.50;99.90;;;;;;5080552;28;20087;-69
2023/12/02 12:03:49;;;;;;;220.48;9.35;;;4.50;99.90;;;;;;5080580;28;20020;-69
2023/12/02 12:06:29;;;;;;;333.88;11.20;;;4.40;99.90;;;;;;5080545;28;20028;-69
2023/12/02 12:08:55;;;;;;;314.90;11.38;;;;;;;;;;5084540;28;20028;-69
2023/12/02 12:11:21;;;;;;;201.73;10.00;;;4.30;99.90;;;;;;5090334;28;20019;-68
2023/12/02 12:13:48;;;;;;;301.48;12.75;;;4.10;99.90;;;;;;5093566;28;20052;-71
2023/12/02 12:16:14;;;;;;;241.32;11.23;;;4.40;99.90;;;;;;5086132;28;20078;-69
2023/12/02 12:18:42;;;;;;;310.88;12.45;;;;;;;;;;5085561;28;20032;-69
2023/12/02 12:21:09;;;;;;;338.15;12.27;;;4.30;99.90;;;;;;5093552;28;20036;-69
2023/12/02 12:23:35;;;;;;;353.88;12.70;;;;;;;;;;5093706;28;20048;-69
2023/12/02 12:26:03;;;;;;;284.75;11.48;;;4.30;99.90;;;;;;5087830;28;20016;-70
2023/12/02 12:28:31;;;;;;;252.43;10.65;;;4.10;99.90;;;;;;5082600;28;20032;-69
2023/12/02 12:30:57;;;;;;;232.85;10.70;;;4.30;99.90;;;;;;5098927;28;20016;-71
2023/12/02 12:33:22;;;;;;;154.05;10.05;;;4.40;99.90;;;;;;5093175;28;20045;-71
2023/12/02 12:35:49;;;;;;;206.27;10.00;;;;;;;;;;5089806;28;20039;-68
2023/12/02 12:38:15;;;;;;;89.05;8.57;;;4.20;99.90;;;;;;5088884;28;20062;-70
2023/12/02 12:40:42;;;;;;;255.85;12.52;;;4.10;99.90;;;;;;5088755;28;20029;-69
2023/12/02 12:43:09;;;;;;;66.80;7.88;;;4.30;99.90;;;;;;5082073;28;20043;-70
2023/12/02 12:45:35;;;;;;;83.75;8.52;;;;;;;;;;5092170;28;20469;-69
2023/12/02 12:48:01;;;;;;;107.55;10.43;;;;;;;;;;5088947;28;20043;-69
2023/12/02 12:50:33;;;;;;;80.22;8.73;;;4.20;99.90;;;;;;5095434;28;20038;-70
2023/12/02 12:53:10;;;;;;;74.65;9.05;;;4.60;99.90;;;;;;5104178;28;20031;-70
2023/12/02 12:55:38;;;;;;;86.85;8.43;;;4.20;99.90;;;;;;5104166;28;20108;-70
2023/12/02 12:58:11;;;;;;;64.70;6.70;;;4.20;99.90;;;;;;5103849;28;20328;-69
2023/12/02 13:00:39;;;;;;;85.57;7.80;;;4.10;99.90;;;;;;5103864;28;20028;-69
2023/12/02 13:03:20;;;;;;;42.30;8.60;;;4.10;99.90;;;;;;5105165;28;20028;-68
2023/12/02 13:05:56;;;;;;;25.08;9.02;;;4.10;99.90;;;;;;5103970;28;20338;-68
2023/12/02 13:08:29;;;;;;;24.75;8.25;;;4.10;99.90;;;;;;5104065;28;20031;-69
2023/12/02 13:10:59;;;;;;;19.48;7.07;;;4.30;99.90;;;;;;5089559;28;20063;-68
2023/12/02 13:13:28;;;;;;;14.55;5.75;;;4.10;99.90;;;;;;5108745;28;20241;-70
2023/12/02 13:15:57;;;;;;;21.83;8.55;;;4.20;99.90;;;;;;5098624;28;20025;-69
2023/12/02 13:18:23;;;;;;;30.85;10.07;;;3.90;99.90;;;;;;5110878;28;20100;-68
2023/12/02 13:20:50;;;;;;;25.38;10.18;;;4.30;99.90;;;;;;5112025;28;20061;-69